Time;durP1;ratioP1;P1;durP2;ratioP2;P2;SDS_P1;SDS_P2;PMS_P1;PMS_P2;Temp;Humidity;BMP_temperature;BMP_pressure;BME280_temperature;BME280_humidity;BME280_pressure;Samples;Min_cycle;Max_cycle;Signal;HPM_P1;HPM_P2
2022/11/16 00:02:10;;;;;;;68.55;46.28;;;;;;;6.43;64.33;99305.34;5076236;28;20020;-83
2022/11/16 00:04:35;;;;;;;62.08;44.22;;;;;;;6.74;64.05;99342.38;5094348;28;20020;-82
2022/11/16 00:07:01;;;;;;;61.45;45.35;;;;;;;6.56;63.96;99281.31;5094401;28;20034;-83
2022/11/16 00:09:28;;;;;;;60.50;44.25;;;;;;;6.90;63.72;99333.75;5094075;28;20047;-83
2022/11/16 00:12:03;;;;;;;58.30;43.50;;;;;;;7.27;64.00;99385.84;5093902;28;20032;-83
2022/11/16 00:14:31;;;;;;;58.45;41.70;;;;;;;7.27;63.45;99377.97;5094178;28;20020;-83
2022/11/16 00:16:58;;;;;;;61.05;43.25;;;;;;;6.44;64.13;99256.34;5094185;28;20475;-82
2022/11/16 00:19:24;;;;;;;57.47;41.55;;;;;;;7.28;63.90;99387.50;5093915;28;20027;-82
2022/11/16 00:21:50;;;;;;;57.13;41.65;;;;;;;6.95;63.50;99336.72;5075754;28;20412;-83
2022/11/16 00:24:17;;;;;;;55.00;39.88;;;;;;;7.28;63.82;99390.13;5093725;28;20103;-83
2022/11/16 00:26:44;;;;;;;55.00;41.80;;;;;;;6.72;63.63;99291.88;5093994;28;20593;-83
2022/11/16 00:29:19;;;;;;;59.88;44.42;;;;;;;7.27;63.32;99376.16;5093830;28;20457;-83
2022/11/16 00:31:46;;;;;;;59.67;42.83;;;;;;;6.70;63.48;99278.09;5093672;28;20024;-84
2022/11/16 00:34:12;;;;;;;64.85;44.63;;;;;;;6.07;63.07;99175.44;5075875;28;20016;-83
2022/11/16 00:36:37;;;;;;;61.78;44.22;;;;;;;6.95;63.46;99334.91;5075555;28;20017;-84
2022/11/16 00:39:04;;;;;;;66.53;47.42;;;;;;;6.94;63.80;99338.50;5093875;28;20035;-84
2022/11/16 00:41:29;;;;;;;61.90;43.13;;;;;;;6.18;63.31;99217.09;5093541;28;20499;-84
2022/11/16 00:43:54;;;;;;;68.28;47.03;;;;;;;6.83;63.63;99330.13;5093446;28;20028;-84
2022/11/16 00:46:20;;;;;;;86.32;53.53;;;;;;;4.66;63.82;98976.84;5093418;28;20016;-83
2022/11/16 00:48:45;;;;;;;62.13;44.20;;;;;;;6.58;63.26;99272.28;5093311;28;20027;-83
2022/11/16 00:51:11;;;;;;;56.38;40.65;;;;;;;6.78;63.70;99330.59;5093467;28;20404;-82
2022/11/16 00:53:36;;;;;;;54.17;39.90;;;;;;;6.52;63.32;99274.72;5093406;28;20058;-84
2022/11/16 00:56:02;;;;;;;53.08;39.13;;;;;;;7.17;63.97;99367.63;5093610;28;20032;-83
2022/11/16 00:58:27;;;;;;;47.60;35.92;;;;;;;6.77;63.19;99297.47;5093293;28;20439;-82
2022/11/16 01:00:53;;;;;;;53.65;38.47;;;;;;;6.24;63.21;99201.53;5093375;28;20480;-83
2022/11/16 01:03:18;;;;;;;53.20;38.67;;;;;;;6.56;63.48;99250.66;5092989;28;20020;-83
2022/11/16 01:05:44;;;;;;;50.65;36.55;;;;;;;6.35;63.44;99234.50;5093004;28;20027;-83
2022/11/16 01:08:09;;;;;;;53.17;39.97;;;;;;;6.73;63.56;99290.06;5092876;28;20058;-83
2022/11/16 01:10:38;;;;;;;48.67;36.45;;;;;;;7.06;63.78;99335.59;5093188;28;20022;-82
2022/11/16 01:13:03;;;;;;;56.42;40.00;;;;;;;6.93;63.91;99315.06;5074721;28;20024;-82
2022/11/16 01:15:29;;;;;;;53.40;39.15;;;;;;;6.63;63.39;99266.56;5093260;28;20027;-82
2022/11/16 01:17:55;;;;;;;52.20;38.85;;;;;;;7.07;63.79;99326.75;5093129;28;20024;-82
2022/11/16 01:20:24;;;;;;;50.40;35.90;;;;;;;6.09;63.18;99178.72;5075287;28;20046;-82
2022/11/16 01:22:50;;;;;;;50.08;37.50;;;;;;;6.60;63.52;99251.97;5093438;28;20389;-83
2022/11/16 01:25:16;;;;;;;47.88;36.70;;;;;;;7.00;63.17;99311.63;5092836;28;20012;-82
2022/11/16 01:27:42;;;;;;;48.50;35.88;;;;;;;4.68;63.42;98935.69;5092844;28;20020;-82
2022/11/16 01:30:10;;;;;;;48.45;35.03;;;;;;;6.96;63.50;99310.31;5092106;28;20035;-82
2022/11/16 01:32:36;;;;;;;47.05;35.80;;;;;;;5.96;63.25;99138.06;5092581;28;20081;-83
2022/11/16 01:35:02;;;;;;;48.15;36.67;;;;;;;7.00;63.68;99297.69;5074610;28;20024;-82
2022/11/16 01:37:28;;;;;;;51.80;37.35;;;;;;;6.25;63.80;99205.81;5092686;28;20024;-83
2022/11/16 01:39:54;;;;;;;50.30;37.05;;;;;;;6.71;64.36;99265.81;5092575;28;20044;-82
2022/11/16 01:42:23;;;;;;;52.63;37.63;;;;;;;6.17;64.10;99178.75;5092579;28;20519;-82
2022/11/16 01:44:48;;;;;;;52.38;37.85;;;;;;;6.90;64.09;99284.69;5074361;28;20023;-82
2022/11/16 01:47:15;;;;;;;56.80;40.13;;;;;;;6.86;63.81;99282.56;5092183;28;20412;-82
2022/11/16 01:49:52;;;;;;;56.65;38.60;;;;;;;6.83;63.87;99288.94;5092348;28;20034;-82
2022/11/16 01:52:21;;;;;;;51.58;36.53;;;;;;;6.88;64.03;99294.53;5092093;28;20107;-83
2022/11/16 01:54:50;;;;;;;46.15;34.85;;;;;;;6.69;64.48;99258.91;5092234;28;20019;-82
2022/11/16 01:57:22;;;;;;;48.22;34.63;;;;;;;5.88;63.93;99124.88;5074155;28;20063;-83
2022/11/16 01:59:51;;;;;;;49.80;35.88;;;;;;;6.64;63.95;99240.19;5092950;28;20467;-83
2022/11/16 02:02:17;;;;;;;50.42;36.83;;;;;;;6.82;64.22;99276.81;5093233;28;20503;-82
2022/11/16 02:04:44;;;;;;;50.85;35.85;;;;;;;6.72;63.45;99228.09;5092531;28;20127;-83
2022/11/16 02:09:52;;;;;;;45.47;33.97;;;;;;;6.67;63.86;99229.38;5073745;28;20511;-83
2022/11/16 02:10:44;;;;;;;46.92;34.92;;;;;;;6.84;63.95;99261.72;5051683;28;20430;-82
2022/11/16 02:13:23;;;;;;;49.65;36.25;;;;;;;6.72;64.04;99257.78;5050301;28;20060;-82
2022/11/16 02:15:57;;;;;;;50.33;36.75;;;;;;;6.33;64.50;99186.66;5050552;28;20021;-82
2022/11/16 02:18:38;;;;;;;53.47;36.47;;;;;;;6.83;64.29;99267.13;5051886;28;20158;-82
2022/11/16 02:21:29;;;;;;;43.55;32.53;;;;;;;6.46;63.90;99221.13;5051703;28;20024;-82
2022/11/16 02:24:03;;;;;;;42.72;33.60;;;;;;;6.71;64.22;99263.19;5051630;28;20021;-82
2022/11/16 02:27:10;;;;;;;41.13;32.63;;;;;;;6.64;63.78;99252.47;5051649;28;20021;-82
2022/11/16 02:29:44;;;;;;;47.42;35.67;;;;;;;6.64;64.43;99245.41;5050169;28;20464;-82
2022/11/16 02:32:19;;;;;;;43.47;33.50;;;;;;;6.54;64.00;99233.44;5051272;28;20560;-82
2022/11/16 02:34:49;;;;;;;48.15;34.28;;;;;;;6.68;63.97;99259.03;5051417;28;20103;-83
2022/11/16 02:37:19;;;;;;;44.38;33.55;;;;;;;6.17;63.91;99155.97;5051497;28;20031;-82
2022/11/16 02:39:48;;;;;;;44.88;33.30;;;;;;;6.76;63.22;99250.41;5051451;28;20083;-82
2022/11/16 02:42:20;;;;;;;47.38;34.88;;;;;;;6.28;63.83;99181.06;5050289;28;20025;-82
2022/11/16 02:44:50;;;;;;;42.28;32.60;;;;;;;6.27;63.49;99197.78;5051221;28;20028;-82
2022/11/16 02:47:21;;;;;;;45.03;33.20;;;;;;;6.25;63.92;99199.75;5051374;28;20025;-82
2022/11/16 02:49:53;;;;;;;45.40;33.88;;;;;;;5.86;63.75;99126.00;5051619;28;20063;-83
2022/11/16 02:52:21;;;;;;;48.47;36.95;;;;;;;6.61;64.25;99250.16;5051075;28;20032;-82
2022/11/16 02:54:47;;;;;;;51.53;38.33;;;;;;;6.26;63.77;99176.00;5051285;28;20029;-82
2022/11/16 02:57:39;;;;;;;53.67;37.15;;;;;;;6.63;63.54;99232.47;5050405;28;20017;-82
2022/11/16 03:00:09;;;;;;;46.60;33.83;;;;;;;6.24;64.41;99191.06;5051392;28;20021;-82
2022/11/16 03:03:10;;;;;;;43.97;30.77;;;;;;;6.28;63.17;99195.00;5050027;28;20048;-83
2022/11/16 03:05:41;;;;;;;45.40;32.00;;;;;;;6.55;63.58;99245.56;5046330;28;20029;-82
2022/11/16 03:08:12;;;;;;;41.42;32.47;;;;;;;6.59;63.68;99245.09;5065041;28;20289;-82
2022/11/16 03:13:27;;;;;;;46.42;32.97;;;;;;;6.41;63.74;99225.19;5091292;28;20039;-82
2022/11/16 03:15:55;;;;;;;45.30;33.28;;;;;;;6.08;63.62;99170.03;5091423;28;20015;-82
2022/11/16 03:18:22;;;;;;;53.30;37.65;;;;;;;6.64;63.50;99276.06;5091055;28;20020;-82
2022/11/16 03:20:51;;;;;;;45.00;33.45;;;;;;;5.94;63.88;99145.22;5091165;28;20027;-82
2022/11/16 03:23:17;;;;;;;67.70;45.30;;;;;;;6.46;63.81;99201.94;5091290;28;20515;-83
2022/11/16 03:25:51;;;;;;;62.72;42.65;;;;;;;5.95;63.43;99128.56;5091074;28;20106;-82
2022/11/16 03:28:26;;;;;;;54.60;37.83;;;;;;;6.72;63.28;99239.41;5091332;28;20515;-83
2022/11/16 03:30:58;;;;;;;49.90;37.08;;;;;;;6.02;63.75;99137.41;5073009;28;20016;-82
2022/11/16 03:33:36;;;;;;;53.92;37.65;;;;;;;6.74;63.76;99236.63;5072914;28;20023;-82
2022/11/16 03:36:29;;;;;;;50.53;36.40;;;;;;;6.68;63.62;99225.75;5091235;28;20020;-82
2022/11/16 03:39:00;;;;;;;43.13;32.33;;;;;;;5.98;63.71;99132.66;5090804;28;20455;-83
2022/11/16 03:41:28;;;;;;;47.13;34.45;;;;;;;6.28;63.45;99173.22;5072932;28;20416;-82
2022/11/16 03:43:56;;;;;;;45.17;33.20;;;;;;;5.74;63.49;99094.84;5072877;28;20173;-82
2022/11/16 03:46:22;;;;;;;47.85;34.47;;;;;;;6.58;63.73;99226.88;5091069;28;20523;-82
2022/11/16 03:48:47;;;;;;;49.25;35.50;;;;;;;5.89;63.92;99125.69;5090941;28;20024;-82
2022/11/16 03:51:13;;;;;;;44.55;31.48;;;;;;;6.40;63.98;99194.72;5072748;28;20521;-82
2022/11/16 03:53:38;;;;;;;48.22;35.58;;;;;;;6.58;64.03;99208.53;5091862;28;20020;-82
2022/11/16 03:56:04;;;;;;;45.70;33.13;;;;;;;6.21;63.63;99149.44;5094640;28;20026;-82
2022/11/16 03:58:30;;;;;;;43.92;32.50;;;;;;;6.18;64.09;99167.28;5094665;28;20457;-82
2022/11/16 04:00:55;;;;;;;43.03;32.83;;;;;;;5.16;64.06;98990.03;5094574;28;20051;-82
2022/11/16 04:03:21;;;;;;;44.20;32.70;;;;;;;5.89;64.23;99104.72;5094381;28;20104;-82
2022/11/16 04:25:37;;;;;;;49.15;35.30;;;;;;;6.04;64.13;99117.13;5031819;28;20032;-82
2022/11/16 04:28:13;;;;;;;47.38;34.35;;;;;;;5.69;64.05;99057.84;5031923;28;20040;-82
2022/11/16 04:38:57;;;;;;;50.75;37.33;;;;;;;6.12;64.76;99154.81;5093833;28;20031;-82
2022/11/16 04:44:07;;;;;;;54.80;37.88;;;;;;;5.92;64.54;99113.13;5093857;28;20031;-82
2022/11/16 04:49:16;;;;;;;50.40;36.47;;;;;;;5.57;64.37;99035.53;5093633;28;20051;-82
2022/11/16 04:51:41;;;;;;;44.67;31.58;;;;;;;5.94;64.64;99120.81;5075269;28;20480;-83
2022/11/16 04:54:07;;;;;;;45.17;33.53;;;;;;;5.77;64.38;99087.66;5093605;28;20141;-82
2022/11/16 04:56:32;;;;;;;51.00;34.78;;;;;;;5.51;64.38;99019.63;5093200;28;20488;-82
2022/11/16 04:58:57;;;;;;;45.85;33.17;;;;;;;5.78;64.72;99123.34;5093363;28;20027;-82
2022/11/16 05:02:06;;;;;;;45.65;32.20;;;;;;;6.02;63.99;99120.88;5092931;28;20028;-82
2022/11/16 05:04:08;;;;;;;54.88;34.45;;;;;;;5.91;64.21;99119.34;5093115;28;20052;-83
2022/11/16 05:06:34;;;;;;;45.55;34.40;;;;;;;5.66;64.22;99071.25;5092342;28;20052;-82
2022/11/16 05:08:59;;;;;;;53.47;38.75;;;;;;;5.32;64.15;99049.50;5075015;28;20040;-83
2022/11/16 05:11:24;;;;;;;60.38;41.20;;;;;;;5.50;63.97;99067.75;5093054;28;20470;-82
2022/11/16 05:13:50;;;;;;;59.65;44.42;;;;;;;5.44;63.84;99058.72;5074634;28;20024;-82
2022/11/16 05:16:15;;;;;;;61.45;44.03;;;;;;;4.27;63.91;98864.84;5093390;28;20555;-82
2022/11/16 05:18:41;;;;;;;69.25;47.25;;;;;;;5.82;64.58;99117.63;5075001;28;20115;-82
2022/11/16 05:21:06;;;;;;;62.33;44.60;;;;;;;6.03;64.23;99133.81;5092864;28;20012;-82
2022/11/16 05:26:35;;;;;;;65.82;46.22;;;;;;;5.64;64.27;99073.22;5011016;28;20121;-82
2022/11/16 05:29:00;;;;;;;60.90;43.40;;;;;;;5.43;64.50;99041.38;5011001;28;20034;-82
2022/11/16 05:31:26;;;;;;;63.38;43.10;;;;;;;5.47;64.12;99037.47;5048253;28;20043;-82
2022/11/16 05:33:51;;;;;;;63.45;44.88;;;;;;;5.85;64.29;99103.41;5074457;28;20103;-82
2022/11/16 05:36:16;;;;;;;66.50;48.92;;;;;;;6.02;64.10;99121.69;5092385;28;20409;-83
2022/11/16 05:38:42;;;;;;;64.55;48.08;;;;;;;6.07;63.96;99100.25;5092343;28;20031;-82
2022/11/16 05:41:07;;;;;;;68.32;48.78;;;;;;;5.92;63.33;99075.63;5074337;28;20058;-82
2022/11/16 05:43:33;;;;;;;66.15;45.72;;;;;;;6.13;63.55;99107.47;5092366;28;20051;-82
2022/11/16 05:45:58;;;;;;;66.88;50.47;;;;;;;5.78;63.63;99032.50;5092399;28;20020;-81
2022/11/16 05:48:23;;;;;;;66.72;48.97;;;;;;;5.93;64.12;99064.16;5074022;28;20024;-82
2022/11/16 05:50:49;;;;;;;63.28;47.40;;;;;;;5.86;64.02;99070.97;5092225;28;20055;-82
2022/11/16 05:53:14;;;;;;;62.60;46.45;;;;;;;6.10;64.13;99078.16;5092111;28;20101;-82
2022/11/16 05:55:39;;;;;;;67.78;47.50;;;;;;;5.84;63.78;99044.13;5092076;28;20036;-82
2022/11/16 05:58:05;;;;;;;66.22;46.47;;;;;;;6.11;63.86;99075.38;5092084;28;20095;-82
2022/11/16 06:00:30;;;;;;;75.68;50.65;;;;;;;6.60;63.78;99149.66;5092065;28;20484;-82
2022/11/16 06:02:56;;;;;;;75.85;49.50;;;;;;;5.81;63.67;99005.16;5092123;28;20053;-82
2022/11/16 06:05:21;;;;;;;66.82;47.13;;;;;;;6.26;63.76;99083.41;5074039;28;20031;-83
2022/11/16 06:07:46;;;;;;;76.85;48.83;;;;;;;5.84;63.48;99012.69;5091816;28;20135;-83
2022/11/16 06:10:12;;;;;;;74.65;51.58;;;;;;;6.37;63.49;99094.41;5092121;28;20020;-82
2022/11/16 06:12:37;;;;;;;71.68;49.97;;;;;;;6.07;62.96;99024.25;5091844;28;20477;-83
2022/11/16 06:15:03;;;;;;;76.30;51.45;;;;;;;6.52;63.70;99099.00;5091905;28;20095;-82
2022/11/16 06:17:28;;;;;;;75.78;53.05;;;;;;;6.30;63.40;99059.34;5091700;28;20024;-82
2022/11/16 06:19:54;;;;;;;74.10;53.15;;;;;;;6.19;63.38;99049.16;5091882;28;20024;-81
2022/11/16 06:22:19;;;;;;;85.53;60.80;;;;;;;6.81;63.12;99132.66;5092017;28;20031;-82
2022/11/16 06:24:45;;;;;;;82.68;58.03;;;;;;;5.85;63.78;99002.06;5091711;28;20020;-82
2022/11/16 06:27:10;;;;;;;80.93;56.38;;;;;;;6.08;63.37;99004.09;5091723;28;20024;-82
2022/11/16 06:29:35;;;;;;;71.68;51.38;;;;;;;5.24;63.81;98880.19;5091623;28;20730;-82
2022/11/16 06:32:01;;;;;;;69.82;49.20;;;;;;;5.65;63.96;98909.84;5089461;28;20492;-82
2022/11/16 06:34:26;;;;;;;65.70;47.50;;;;;;;6.42;63.37;99023.13;5075475;28;20056;-82
2022/11/16 06:36:51;;;;;;;80.75;52.08;;;;;;;6.76;63.93;99075.44;5064726;28;20140;-82
2022/11/16 06:39:17;;;;;;;83.57;53.70;;;;;;;6.15;63.69;98969.22;5072105;28;20032;-83
2022/11/16 06:41:42;;;;;;;77.03;54.17;;;;;;;7.09;63.37;99131.31;5053057;28;20020;-82
2022/11/16 06:44:08;;;;;;;82.90;57.75;;;;;;;6.51;63.13;99019.50;5053577;28;20073;-82
2022/11/16 06:46:33;;;;;;;83.43;55.13;;;;;;;6.96;63.39;99060.16;5053163;28;20028;-82
2022/11/16 06:48:58;;;;;;;76.88;51.78;;;;;;;6.57;63.35;99047.69;5070955;28;20394;-83
2022/11/16 06:51:24;;;;;;;75.68;50.78;;;;;;;6.61;63.12;99000.97;5065012;28;20024;-83
2022/11/16 06:53:50;;;;;;;77.43;54.17;;;;;;;6.98;63.36;99066.88;5091443;28;20054;-83
2022/11/16 06:56:15;;;;;;;73.50;52.22;;;;;;;6.92;63.07;99053.59;5090881;28;20099;-82
2022/11/16 06:58:41;;;;;;;80.50;49.92;;;;;;;7.26;62.79;99096.19;5071930;28;20404;-84
2022/11/16 07:01:08;;;;;;;84.78;57.95;;;;;;;6.78;62.70;99007.06;5077902;28;20419;-84
2022/11/16 07:03:33;;;;;;;79.68;53.38;;;;;;;7.24;63.25;99076.34;5065734;28;20055;-84
2022/11/16 07:06:12;;;;;;;74.43;51.05;;;;;;;6.47;62.93;98946.59;5069352;28;20047;-82
2022/11/16 07:08:38;;;;;;;85.55;53.35;;;;;;;7.34;62.67;99087.47;5049685;28;20057;-84
2022/11/16 07:11:05;;;;;;;76.03;49.55;;;;;;;7.36;62.98;99068.91;5065787;28;20489;-84
2022/11/16 07:13:32;;;;;;;77.45;52.60;;;;;;;6.54;62.92;98923.94;5072055;28;20038;-85
2022/11/16 07:16:05;;;;;;;84.85;59.40;;;;;;;7.57;62.88;99092.84;5079861;28;20011;-83
2022/11/16 07:18:36;;;;;;;87.13;58.00;;;;;;;7.68;62.97;99104.78;5094664;28;20028;-85
2022/11/16 07:21:13;;;;;;;79.15;57.75;;;;;;;7.89;63.17;99115.53;5071572;28;20021;-84
2022/11/16 07:23:39;;;;;;;81.32;57.42;;;;;;;7.32;62.73;99029.03;5065562;28;20035;-84
2022/11/16 07:26:06;;;;;;;82.50;56.15;;;;;;;8.07;62.97;99118.72;5068135;28;20055;-83
2022/11/16 07:28:32;;;;;;;82.35;55.15;;;;;;;7.72;63.20;99051.72;5067936;28;20024;-85
2022/11/16 07:31:06;;;;;;;73.82;53.42;;;;;;;7.42;63.62;98997.31;5055183;28;20076;-84
2022/11/16 07:33:31;;;;;;;75.65;54.10;;;;;;;7.78;63.20;99027.38;5035743;28;20029;-80
2022/11/16 07:36:01;;;;;;;79.07;58.05;;;;;;;8.33;63.50;99096.59;5058183;28;20081;-82
2022/11/16 07:38:27;;;;;;;90.22;60.58;;;;;;;7.81;63.24;98999.94;5073098;28;20082;-83
2022/11/16 07:40:52;;;;;;;92.30;67.53;;;;;;;7.95;63.12;99022.84;5071905;28;20032;-84
2022/11/16 07:43:17;;;;;;;94.15;68.68;;;;;;;8.49;63.18;99105.22;5058737;28;20482;-83
2022/11/16 07:45:43;;;;;;;82.05;61.65;;;;;;;7.70;63.11;98951.22;5052369;28;20029;-83
2022/11/16 07:48:08;;;;;;;94.50;68.78;;;;;;;7.72;63.07;98948.44;5070097;28;20047;-83
2022/11/16 07:50:35;;;;;;;85.35;61.40;;;;;;;8.01;63.31;98992.41;5068550;28;20044;-85
2022/11/16 07:53:01;;;;;;;77.60;56.70;;;;;;;8.72;63.48;99078.06;5054895;28;20029;-84
2022/11/16 07:55:30;;;;;;;80.97;58.20;;;;;;;8.09;63.48;98977.41;5067969;28;20536;-84
2022/11/16 07:57:57;;;;;;;66.65;50.03;;;;;;;8.04;63.75;98963.16;5058011;28;20074;-84
2022/11/16 08:00:23;;;;;;;65.75;50.80;;;;;;;8.87;63.76;99065.75;5060093;28;20025;-83
2022/11/16 08:02:49;;;;;;;70.15;46.50;;;;;;;8.34;63.40;98966.75;5070348;28;21047;-85
2022/11/16 08:05:14;;;;;;;66.68;44.83;;;;;;;8.94;63.64;99044.84;5070955;28;20027;-84
2022/11/16 08:07:39;;;;;;;66.65;45.38;;;;;;;8.22;63.93;98926.88;5036775;28;20095;-85
2022/11/16 08:10:05;;;;;;;71.10;45.65;;;;;;;9.08;64.19;99073.81;5065299;28;20417;-85
2022/11/16 08:12:31;;;;;;;66.38;47.38;;;;;;;8.74;64.57;99007.66;5073418;28;20017;-84
2022/11/16 08:14:56;;;;;;;68.38;47.20;;;;;;;8.59;64.60;98997.91;5071169;28;20469;-84
2022/11/16 08:17:22;;;;;;;57.67;40.25;;;;;;;9.10;64.52;99066.56;5072066;28;20509;-83
2022/11/16 08:19:47;;;;;;;61.95;40.58;;;;;;;8.69;64.47;98966.06;5073628;28;20645;-83
2022/11/16 08:22:12;;;;;;;56.47;41.08;;;;;;;9.03;64.85;99018.25;5073751;28;20029;-84
2022/11/16 08:24:38;;;;;;;54.08;38.20;;;;;;;8.47;64.77;98911.72;5067005;28;20032;-83
2022/11/16 08:27:03;;;;;;;59.33;43.78;;;;;;;8.80;64.90;98967.44;5052259;28;20485;-84
2022/11/16 08:29:28;;;;;;;53.72;39.28;;;;;;;9.20;64.61;99014.44;5073265;28;20096;-84
2022/11/16 08:31:54;;;;;;;57.88;41.70;;;;;;;9.08;65.00;99015.06;5073300;28;20115;-84
2022/11/16 08:34:20;;;;;;;52.80;42.42;;;;;;;9.45;64.77;99022.84;5071288;28;20069;-83
2022/11/16 08:36:46;;;;;;;44.75;35.60;;;;;;;9.29;64.65;99001.97;5057043;28;20028;-84
2022/11/16 08:39:11;;;;;;;48.30;37.85;;;;;;;9.75;65.01;99044.75;5072349;28;20078;-84
2022/11/16 08:41:37;;;;;;;57.90;44.40;;;;;;;9.08;64.69;98933.44;5054713;28;20032;-85
2022/11/16 08:44:03;;;;;;;48.10;37.55;;;;;;;9.10;64.89;98937.50;5071121;28;20027;-84
2022/11/16 08:46:28;;;;;;;49.00;35.92;;;;;;;9.95;64.83;99044.97;5071869;28;20104;-84
2022/11/16 08:48:55;;;;;;;45.95;37.40;;;;;;;9.84;65.12;99013.81;5073246;28;20481;-84
2022/11/16 08:51:21;;;;;;;52.35;40.72;;;;;;;10.07;64.66;99040.03;5055285;28;20039;-83
2022/11/16 08:53:48;;;;;;;57.88;45.70;;;;;;;10.13;64.83;99034.81;5073158;28;20408;-84
2022/11/16 08:56:15;;;;;;;53.25;43.67;;;;;;;10.24;64.64;99044.09;5056571;28;20111;-84
2022/11/16 08:58:47;;;;;;;65.60;48.13;;;;;;;9.82;64.36;98956.00;5073234;28;20102;-84
2022/11/16 09:01:18;;;;;;;46.92;36.08;;;;;;;10.14;64.44;99006.63;5054891;28;20021;-84
2022/11/16 09:03:44;;;;;;;50.40;39.22;;;;;;;9.65;63.64;98914.22;5055070;28;20409;-85
2022/11/16 09:06:11;;;;;;;53.97;41.10;;;;;;;9.63;63.95;98892.50;5070107;28;20390;-84
2022/11/16 09:08:38;;;;;;;45.72;37.75;;;;;;;10.33;64.06;98986.72;5053414;28;20542;-84
2022/11/16 09:11:05;;;;;;;55.47;42.17;;;;;;;10.67;63.46;99022.97;5054261;28;20024;-83
2022/11/16 09:13:31;;;;;;;54.67;40.38;;;;;;;10.12;63.61;98938.22;5072536;28;20012;-82
2022/11/16 09:15:57;;;;;;;59.90;42.22;;;;;;;10.18;63.26;98915.53;5077139;28;20073;-84
2022/11/16 09:18:23;;;;;;;46.22;35.25;;;;;;;10.69;63.36;98981.34;5057360;28;20035;-85
2022/11/16 09:20:48;;;;;;;48.17;36.70;;;;;;;10.41;62.93;98926.75;5071922;28;20029;-84
2022/11/16 09:23:14;;;;;;;56.10;41.67;;;;;;;10.37;62.93;98916.72;5072361;28;20024;-82
2022/11/16 09:25:39;;;;;;;57.30;37.85;;;;;;;10.87;62.88;98957.09;5053922;28;20032;-82
2022/11/16 09:28:05;;;;;;;52.05;39.75;;;;;;;11.01;62.86;98995.78;5054685;28;20029;-85
2022/11/16 09:30:30;;;;;;;50.00;37.13;;;;;;;10.64;63.22;98884.25;5072561;28;20028;-82
2022/11/16 09:32:59;;;;;;;53.83;38.53;;;;;;;11.22;62.59;98968.47;5072661;28;20123;-84
2022/11/16 09:35:25;;;;;;;49.53;36.95;;;;;;;11.21;62.51;98943.88;5054858;28;20393;-83
2022/11/16 09:37:50;;;;;;;58.72;42.47;;;;;;;10.99;62.30;98892.13;5072557;28;20029;-84
2022/11/16 09:40:16;;;;;;;49.47;38.45;;;;;;;11.59;61.63;98967.22;5070177;28;20035;-84
2022/11/16 09:43:05;;;;;;;51.53;37.38;;;;;;;10.94;61.83;98836.44;5072228;28;20016;-84
2022/11/16 09:45:44;;;;;;;60.80;42.30;;;;;;;11.57;61.77;98914.53;5072448;28;20407;-84
2022/11/16 09:48:12;;;;;;;47.40;38.50;;;;;;;11.79;61.30;98920.50;5070269;28;20028;-84
2022/11/16 09:50:51;;;;;;;46.65;34.60;;;;;;;12.04;61.41;98940.09;5053125;28;20028;-84
2022/11/16 09:53:17;;;;;;;60.13;39.97;;;;;;;12.14;60.95;98936.25;5071671;28;20099;-84
2022/11/16 09:55:49;;;;;;;48.15;37.38;;;;;;;12.19;61.26;98929.31;5048957;28;20497;-84
2022/11/16 09:58:20;;;;;;;46.95;37.22;;;;;;;11.87;60.91;98858.66;5050080;28;20407;-84
2022/11/16 10:00:53;;;;;;;55.72;39.78;;;;;;;11.23;61.05;98756.91;5051035;28;20025;-82
2022/11/16 10:03:18;;;;;;;48.15;36.22;;;;;;;12.37;61.16;98910.19;5055482;28;20381;-82
2022/11/16 10:06:04;;;;;;;49.40;38.67;;;;;;;12.37;61.26;98887.16;5075092;28;20041;-83
2022/11/16 10:08:48;;;;;;;50.28;36.80;;;;;;;12.06;61.21;98807.59;5063687;28;20041;-84
2022/11/16 10:11:28;;;;;;;58.17;39.53;;;;;;;12.70;60.78;98889.78;5069707;28;20028;-83
2022/11/16 10:13:59;;;;;;;51.20;36.45;;;;;;;12.80;60.79;98888.53;5071486;28;20094;-82
2022/11/16 10:16:43;;;;;;;48.22;38.30;;;;;;;12.89;60.59;98887.28;5071687;28;20030;-83
2022/11/16 10:19:24;;;;;;;46.50;36.10;;;;;;;12.99;60.71;98874.41;5071705;28;20020;-83
2022/11/16 10:22:00;;;;;;;48.88;38.78;;;;;;;13.04;60.31;98885.19;5071694;28;20024;-83
2022/11/16 10:25:10;;;;;;;42.75;35.88;;;;;;;12.78;60.39;98821.72;5076197;28;20024;-83
2022/11/16 10:27:44;;;;;;;49.22;37.88;;;;;;;13.10;60.47;98863.16;5088607;28;20459;-83
2022/11/16 10:30:17;;;;;;;41.25;31.65;;;;;;;13.17;60.10;98863.16;5071541;28;20035;-83
2022/11/16 10:32:49;;;;;;;42.55;33.85;;;;;;;12.54;60.43;98759.63;5053513;28;20028;-83
2022/11/16 10:35:16;;;;;;;;;;;;;;;13.24;60.83;98848.84;5072132;28;20065;-82
2022/11/16 10:37:50;;;;;;;33.40;26.52;;;;;;;12.76;60.61;98754.88;5071398;28;19912;-83
2022/11/16 10:40:24;;;;;;;30.80;25.40;;;;;;;13.48;60.61;98843.84;5071675;28;20055;-83
2022/11/16 10:43:14;;;;;;;30.35;24.92;;;;;;;13.56;60.76;98832.97;5071398;28;20052;-83
2022/11/16 10:45:46;;;;;;;36.58;27.52;;;;;;;13.65;60.41;98840.44;5052466;28;20115;-82
2022/11/16 10:48:16;;;;;;;;;;;;;;;13.62;60.94;98834.75;5071880;28;20013;-83
2022/11/16 10:50:45;;;;;;;34.40;28.38;;;;;;;13.49;60.53;98808.34;5071395;28;19951;-83
2022/11/16 10:53:13;;;;;;;39.25;28.65;;;;;;;13.77;60.25;98837.91;5053128;28;20476;-83
2022/11/16 10:55:38;;;;;;;38.78;26.85;;;;;;;12.97;60.33;98683.84;5071334;28;20026;-83
2022/11/16 10:58:05;;;;;;;34.13;28.80;;;;;;;13.80;60.22;98829.53;5053265;28;20024;-83
2022/11/16 11:00:39;;;;;;;34.65;29.42;;;;;;;13.77;60.50;98800.78;5071010;28;20044;-83
2022/11/16 11:03:06;;;;;;;32.00;25.67;;;;;;;13.27;60.83;98726.47;5071684;28;20020;-83
2022/11/16 11:05:34;;;;;;;32.90;26.75;;;;;;;13.73;60.84;98782.84;5057752;28;20032;-83
2022/11/16 11:08:05;;;;;;;36.47;27.80;;;;;;;13.83;60.96;98801.75;5057125;28;20040;-83
2022/11/16 11:10:36;;;;;;;34.88;27.30;;;;;;;13.55;61.50;98759.75;5075556;28;20024;-84
2022/11/16 11:13:01;;;;;;;26.70;19.67;;;;;;;13.90;61.42;98783.94;5075413;28;20131;-83
2022/11/16 11:15:27;;;;;;;28.70;22.00;;;;;;;13.60;61.45;98736.84;5075185;28;20110;-82
2022/11/16 11:18:23;;;;;;;28.08;22.65;;;;;;;14.07;61.22;98778.88;5073780;28;20065;-82
2022/11/16 11:21:14;;;;;;;22.48;19.02;;;;;;;13.67;61.02;98704.94;5074081;28;20062;-82
2022/11/16 11:23:45;;;;;;;22.00;18.23;;;;;;;13.72;60.88;98691.84;5082202;28;20020;-83
2022/11/16 11:26:39;;;;;;;22.15;19.02;;;;;;;14.24;61.16;98759.53;5076023;28;20024;-82
2022/11/16 11:29:20;;;;;;;22.67;19.88;;;;;;;14.28;60.63;98767.84;5075793;28;20553;-82
2022/11/16 11:31:49;;;;;;;21.00;18.55;;;;;;;14.05;60.92;98725.19;5056764;28;20048;-82
2022/11/16 11:34:16;;;;;;;27.08;19.80;;;;;;;14.22;60.66;98727.06;5054645;28;20043;-83
2022/11/16 11:36:48;;;;;;;26.90;20.20;;;;;;;13.68;60.71;98630.47;5073957;28;20496;-83
2022/11/16 11:39:13;;;;;;;21.77;17.83;;;;;;;14.54;60.29;98746.34;5073740;28;20017;-83
2022/11/16 11:41:43;;;;;;;24.88;19.05;;;;;;;14.62;60.23;98747.88;5057033;28;20039;-82
2022/11/16 11:44:12;;;;;;;21.77;17.70;;;;;;;14.64;60.16;98740.50;5056643;28;20028;-82
2022/11/16 11:46:41;;;;;;;19.63;15.77;;;;;;;13.78;60.03;98600.75;5073756;28;20024;-82
2022/11/16 11:49:15;;;;;;;24.23;20.30;;;;;;;14.73;59.87;98741.00;5076349;28;20028;-82
2022/11/16 11:51:44;;;;;;;21.75;16.35;;;;;;;14.77;59.38;98731.53;5068960;28;20107;-82
2022/11/16 11:54:22;;;;;;;16.85;13.98;;;;;;;14.42;59.10;98671.09;5072517;28;20142;-83
2022/11/16 11:56:47;;;;;;;18.02;15.02;;;;;;;14.42;58.73;98659.63;5067527;28;20028;-83
2022/11/16 11:59:22;;;;;;;20.13;15.57;;;;;;;14.91;58.69;98727.69;5073382;28;20063;-82
2022/11/16 12:02:26;;;;;;;21.83;18.63;;;;;;;14.93;58.58;98715.81;5073822;28;20133;-82
2022/11/16 12:05:13;;;;;;;19.58;15.40;;;;;;;14.95;58.28;98718.25;5074027;28;20083;-83
2022/11/16 12:08:19;;;;;;;18.90;15.25;;;;;;;14.50;58.76;98646.06;5065416;28;20067;-83
2022/11/16 12:11:04;;;;;;;18.67;16.40;;;;;;;15.00;58.33;98709.59;5065695;28;20028;-83
2022/11/16 12:13:39;;;;;;;20.35;15.38;;;;;;;14.26;58.02;98608.78;5075424;28;20051;-83
2022/11/16 12:16:43;;;;;;;17.30;14.52;;;;;;;15.03;57.93;98717.09;5070953;28;20501;-82